Time;durP1;ratioP1;P1;durP2;ratioP2;P2;SDS_P1;SDS_P2;PMS_P1;PMS_P2;Temp;Humidity;BMP_temperature;BMP_pressure;BME280_temperature;BME280_humidity;BME280_pressure;Samples;Min_cycle;Max_cycle;Signal;HPM_P1;HPM_P2
2023/04/15 06:22:28;;;;;;;13.63;5.40;;;;;;;;;;12948725;19;20006;-67
2023/04/15 06:26:46;;;;;;;3.78;2.42;;;;;;;;;;12961088;19;20035;-68
2023/04/15 06:31:06;;;;;;;35.17;28.45;;;;;;;;;;12958515;19;20039;-68
2023/04/15 06:35:24;;;;;;;9.05;3.97;;;;;;;;;;12960308;19;20686;-68
2023/04/15 06:39:43;;;;;;;28.52;24.73;;;;;;;;;;12959597;19;20087;-68
2023/04/15 06:44:02;;;;;;;5.70;2.88;;;;;;;;;;12810944;19;20467;-67
2023/04/15 06:48:22;;;;;;;5.70;2.78;;;;;;;;;;12956809;19;20032;-67
2023/04/15 06:52:41;;;;;;;11.13;8.10;;;;;;;;;;12956371;19;20192;-68
2023/04/15 06:57:00;;;;;;;6.65;4.32;;;;;;;;;;12957260;19;20040;-68
2023/04/15 07:01:19;;;;;;;5.10;2.95;;;;;;;;;;12959204;19;20033;-68
2023/04/15 07:05:38;;;;;;;45.15;37.50;;;;;;;;;;12957459;19;20017;-68
2023/04/15 07:09:57;;;;;;;5.90;4.05;;;;;;;;;;12957051;19;20010;-68
2023/04/15 07:14:16;;;;;;;10.55;7.00;;;;;;;;;;12960185;19;20022;-67
2023/04/15 07:18:35;;;;;;;5.97;2.05;;;;;;;;;;12958546;19;20094;-68
2023/04/15 07:22:54;;;;;;;3.85;1.92;;;;;;;;;;12954623;19;20039;-68
2023/04/15 07:27:13;;;;;;;4.25;1.73;;;;;;;;;;12955731;19;20014;-68
2023/04/15 07:31:50;;;;;;;3.83;1.67;;;;;;;;;;12955921;19;20124;-67
2023/04/15 07:36:12;;;;;;;2.45;1.40;;;;;;;;;;12953284;19;20942;-68
2023/04/15 07:40:32;;;;;;;3.88;2.10;;;;;;;;;;12957352;19;20018;-68
2023/04/15 07:44:50;;;;;;;1.95;1.35;;;;;;;;;;12957625;19;20053;-68
2023/04/15 07:49:09;;;;;;;5.32;3.97;;;;;;;;;;12955831;19;20070;-68
2023/04/15 07:53:29;;;;;;;6.97;2.10;;;;;;;;;;12955660;19;20031;-68
2023/04/15 07:57:49;;;;;;;6.50;2.55;;;;;;;;;;12955679;19;20015;-67
2023/04/15 08:02:08;;;;;;;14.20;3.25;;;;;;;;;;12954899;19;20369;-68
2023/04/15 08:06:27;;;;;;;6.65;5.90;;;;;;;;;;12968017;19;20034;-68
2023/04/15 08:10:46;;;;;;;4.85;3.15;;;;;;;;;;12967863;19;20362;-67
2023/04/15 08:15:08;;;;;;;39.22;35.47;;;;;;;;;;12966819;19;20095;-68
2023/04/15 08:19:27;;;;;;;2.50;1.70;;;;;;;;;;12967377;19;20012;-67
2023/04/15 08:23:49;;;;;;;5.88;1.40;;;;;;;;;;12966535;19;20077;-67
2023/04/15 08:28:08;;;;;;;4.18;2.00;;;;;;;;;;12966537;19;20095;-64
2023/04/15 08:32:27;;;;;;;7.75;3.05;;;;;;;;;;12965124;19;20007;-65
2023/04/15 08:36:46;;;;;;;3.85;1.70;;;;;;;;;;12965651;19;20074;-65
2023/04/15 08:41:22;;;;;;;5.65;1.60;;;;;;;;;;12963786;19;20022;-65
2023/04/15 08:45:45;;;;;;;13.50;11.93;;;;;;;;;;12966723;19;20086;-65
2023/04/15 08:50:16;;;;;;;4.97;2.03;;;;;;;;;;12963165;19;20018;-64
2023/04/15 08:54:36;;;;;;;4.90;4.13;;;;;;;;;;12962943;19;20010;-68
2023/04/15 08:58:56;;;;;;;3.22;2.10;;;;;;;;;;12965256;19;20078;-68
2023/04/15 09:03:16;;;;;;;4.88;2.20;;;;;;;;;;12961513;19;20014;-68
2023/04/15 09:07:35;;;;;;;12.57;7.40;;;;;;;;;;12964839;19;20021;-68
2023/04/15 09:11:54;;;;;;;344.25;314.25;;;;;;;;;;12961849;19;20017;-68
2023/04/15 09:16:14;;;;;;;14.00;12.40;;;;;;;;;;12962341;19;20014;-69
2023/04/15 09:20:43;;;;;;;2.65;1.75;;;;;;;;;;12959386;19;20022;-68
2023/04/15 09:25:02;;;;;;;2.38;1.58;;;;;;;;;;12963260;19;20074;-68
2023/04/15 09:29:25;;;;;;;3.08;1.65;;;;;;;;;;12962815;19;20031;-68
2023/04/15 09:33:55;;;;;;;30.63;27.33;;;;;;;;;;12961466;19;20018;-67
2023/04/15 09:38:14;;;;;;;11.05;8.57;;;;;;;;;;12962031;19;20121;-67
2023/04/15 09:42:33;;;;;;;18.67;13.95;;;;;;;;;;12930308;19;20011;-67
2023/04/15 09:46:52;;;;;;;28.75;22.38;;;;;;;;;;12984067;19;20027;-67
2023/04/15 09:51:14;;;;;;;29.02;23.73;;;;;;;;;;12984395;19;20022;-67
2023/04/15 09:55:33;;;;;;;4.45;3.20;;;;;;;;;;12986128;19;20029;-68
2023/04/15 09:59:52;;;;;;;3.80;2.17;;;;;;;;;;12985062;19;20042;-68
2023/04/15 10:04:11;;;;;;;2.88;1.60;;;;;;;;;;12983691;19;20006;-68
2023/04/15 10:08:33;;;;;;;2.88;1.42;;;;;;;;;;12977680;19;20015;-68
2023/04/15 10:12:54;;;;;;;4.22;1.50;;;;;;;;;;12982246;19;20027;-67
2023/04/15 10:17:17;;;;;;;7.10;3.92;;;;;;;;;;12982420;19;20027;-67
2023/04/15 10:21:37;;;;;;;19.60;16.50;;;;;;;;;;12983221;19;20039;-68
2023/04/15 10:25:57;;;;;;;43.50;38.25;;;;;;;;;;12982880;19;20492;-68
2023/04/15 10:30:16;;;;;;;7.20;4.82;;;;;;;;;;12983287;19;20369;-67
2023/04/15 10:34:37;;;;;;;3.00;1.70;;;;;;;;;;12980517;19;20027;-68
2023/04/15 10:38:55;;;;;;;2.65;1.52;;;;;;;;;;12981225;19;20528;-68
2023/04/15 10:43:26;;;;;;;4.45;2.42;;;;;;;;;;12982658;19;20457;-68
2023/04/15 10:47:45;;;;;;;13.10;4.75;;;;;;;;;;12983463;19;20502;-68
2023/04/15 10:52:04;;;;;;;3.45;1.77;;;;;;;;;;12985297;19;20294;-67
2023/04/15 10:56:22;;;;;;;5.68;2.17;;;;;;;;;;12986670;19;20041;-67
2023/04/15 11:00:51;;;;;;;3.90;2.15;;;;;;;;;;12978921;19;20042;-68
2023/04/15 11:05:12;;;;;;;2.15;1.52;;;;;;;;;;12969022;19;20010;-68
2023/04/15 11:09:32;;;;;;;106.32;95.78;;;;;;;;;;12969164;19;20018;-67
2023/04/15 11:13:51;;;;;;;2.63;1.90;;;;;;;;;;12968059;19;20086;-67
2023/04/15 11:18:29;;;;;;;125.15;113.63;;;;;;;;;;12973092;19;20077;-67
2023/04/15 11:22:56;;;;;;;4.55;2.17;;;;;;;;;;12975085;19;20010;-67
2023/04/15 11:27:32;;;;;;;8.68;6.18;;;;;;;;;;12974638;19;20014;-67
2023/04/15 11:31:51;;;;;;;2.85;1.83;;;;;;;;;;12974432;19;20146;-68
2023/04/15 11:36:10;;;;;;;10.13;4.32;;;;;;;;;;12974144;19;20035;-68
2023/04/15 11:40:30;;;;;;;53.13;47.50;;;;;;;;;;12985632;19;20031;-67
2023/04/15 11:44:49;;;;;;;244.00;221.57;;;;;;;;;;12987462;19;20027;-67
2023/04/15 11:49:08;;;;;;;249.18;223.55;;;;;;;;;;12988017;19;20019;-67
2023/04/15 11:53:44;;;;;;;4.15;2.05;;;;;;;;;;12986353;19;20059;-67
2023/04/15 11:58:19;;;;;;;5.60;3.17;;;;;;;;;;12987544;19;20035;-67
2023/04/15 12:02:36;;;;;;;7.75;2.35;;;;;;;;;;12987030;19;20746;-67
2023/04/15 12:07:04;;;;;;;6.20;1.50;;;;;;;;;;12987608;19;20373;-67
2023/04/15 12:11:25;;;;;;;4.85;1.95;;;;;;;;;;12984855;19;20490;-67
2023/04/15 12:15:43;;;;;;;2.47;1.95;;;;;;;;;;12986241;19;20054;-70
2023/04/15 12:20:02;;;;;;;11.05;4.18;;;;;;;;;;12986722;19;20369;-71
2023/04/15 12:24:23;;;;;;;3.20;1.67;;;;;;;;;;12985431;19;20014;-70
2023/04/15 12:28:41;;;;;;;86.50;78.55;;;;;;;;;;12986586;19;20007;-70
2023/04/15 12:33:00;;;;;;;;;;;;;;;;;;12988268;19;20522;-69
2023/04/15 12:37:18;;;;;;;112.63;101.43;;;;;;;;;;12987681;19;19923;-70
2023/04/15 12:41:36;;;;;;;17.25;10.68;;;;;;;;;;12982064;19;20679;-71
2023/04/15 12:45:54;;;;;;;15.55;13.60;;;;;;;;;;12983256;19;20099;-70
2023/04/15 12:50:11;;;;;;;5.88;1.92;;;;;;;;;;12980805;19;20010;-71
2023/04/15 12:54:30;;;;;;;2.03;1.80;;;;;;;;;;12983530;19;20026;-71
2023/04/15 12:58:48;;;;;;;15.68;14.13;;;;;;;;;;12984130;19;20027;-70
2023/04/15 13:03:06;;;;;;;5.68;4.35;;;;;;;;;;12982135;19;20089;-70
2023/04/15 13:07:24;;;;;;;13.27;10.68;;;;;;;;;;12983192;19;20002;-70
2023/04/15 13:11:42;;;;;;;4.75;2.47;;;;;;;;;;12982624;19;20802;-71
2023/04/15 13:16:00;;;;;;;3.22;2.00;;;;;;;;;;12982477;19;20371;-67
2023/04/15 13:20:18;;;;;;;12.68;3.95;;;;;;;;;;12981328;19;20350;-67
2023/04/15 13:24:35;;;;;;;3.42;2.45;;;;;;;;;;12982122;19;20811;-68
2023/04/15 13:28:53;;;;;;;4.55;1.98;;;;;;;;;;12981658;19;20007;-68
2023/04/15 13:33:11;;;;;;;5.05;2.28;;;;;;;;;;12980000;19;20030;-67
2023/04/15 13:37:29;;;;;;;;;;;;;;;;;;12982666;19;20829;-67
2023/04/15 13:41:47;;;;;;;;;;;;;;;;;;12982309;19;19979;-66
2023/04/15 13:46:05;;;;;;;2.13;1.25;;;;;;;;;;12979445;19;19994;-65
2023/04/15 13:50:23;;;;;;;3.58;2.13;;;;;;;;;;12981859;19;20026;-66
2023/04/15 13:54:40;;;;;;;7.38;2.88;;;;;;;;;;12979242;19;20070;-65
2023/04/15 13:59:01;;;;;;;;;;;;;;;;;;12981128;19;20030;-65
2023/04/15 14:03:18;;;;;;;3.33;1.67;;;;;;;;;;12980232;19;20411;-65
2023/04/15 14:07:36;;;;;;;8.10;6.38;;;;;;;;;;12980049;19;20053;-65
2023/04/15 14:11:55;;;;;;;1.52;1.13;;;;;;;;;;12979746;19;20175;-65
2023/04/15 14:16:12;;;;;;;1.75;0.90;;;;;;;;;;12978515;19;20078;-66
2023/04/15 14:20:30;;;;;;;0.93;0.82;;;;;;;;;;12978702;19;20015;-66
2023/04/15 14:24:48;;;;;;;2.20;0.95;;;;;;;;;;12979579;19;20090;-66
2023/04/15 14:29:05;;;;;;;1.63;1.05;;;;;;;;;;12977801;19;20010;-67
2023/04/15 14:33:23;;;;;;;2.75;1.58;;;;;;;;;;12976257;19;20024;-67
2023/04/15 14:37:40;;;;;;;1.88;1.00;;;;;;;;;;12979603;19;20021;-67
2023/04/15 14:41:58;;;;;;;3.08;1.20;;;;;;;;;;12978249;19;20114;-69
2023/04/15 14:46:16;;;;;;;5.43;2.65;;;;;;;;;;12977884;19;20026;-67
2023/04/15 14:50:33;;;;;;;10.57;6.05;;;;;;;;;;12975739;19;20014;-67
2023/04/15 14:54:52;;;;;;;6.57;5.40;;;;;;;;;;12977438;19;20018;-67
2023/04/15 14:59:10;;;;;;;11.15;5.93;;;;;;;;;;12976396;19;20022;-68
2023/04/15 15:03:28;;;;;;;3.88;2.10;;;;;;;;;;12977177;19;20019;-67
2023/04/15 15:07:46;;;;;;;4.63;2.42;;;;;;;;;;12976757;19;20074;-67
2023/04/15 15:12:04;;;;;;;2.28;1.40;;;;;;;;;;12974173;19;20086;-67
2023/04/15 15:16:22;;;;;;;9.23;4.32;;;;;;;;;;12977624;19;20019;-68
2023/04/15 15:20:39;;;;;;;7.80;4.90;;;;;;;;;;12976492;19;20031;-67
2023/04/15 15:24:58;;;;;;;;;;;;;;;;;;12976789;19;20015;-67
2023/04/15 15:29:15;;;;;;;8.73;4.80;;;;;;;;;;12975635;19;19925;-67
2023/04/15 15:33:33;;;;;;;4.53;2.53;;;;;;;;;;12974314;19;20138;-67
2023/04/15 15:37:51;;;;;;;10.48;5.55;;;;;;;;;;12975355;19;20410;-67
2023/04/15 15:42:09;;;;;;;10.55;5.75;;;;;;;;;;12975072;19;20028;-69
2023/04/15 15:46:27;;;;;;;;;;;;;;;;;;12975348;19;20014;-69
2023/04/15 15:50:45;;;;;;;3.42;1.85;;;;;;;;;;12974823;19;19919;-68
2023/04/15 15:55:02;;;;;;;;;;;;;;;;;;12973155;19;20023;-69
2023/04/15 15:59:20;;;;;;;7.78;3.10;;;;;;;;;;12974179;19;20030;-68
2023/04/15 16:03:38;;;;;;;5.97;2.72;;;;;;;;;;12974698;19;20644;-68
2023/04/15 16:07:56;;;;;;;7.97;3.30;;;;;;;;;;12974746;19;20465;-69
2023/04/15 16:12:14;;;;;;;;;;;;;;;;;;12974561;19;20022;-69
2023/04/15 16:16:31;;;;;;;;;;;;;;;;;;12974697;19;19931;-69
2023/04/15 16:20:49;;;;;;;5.10;2.05;;;;;;;;;;12973023;19;20021;-69
2023/04/15 16:25:07;;;;;;;3.85;2.13;;;;;;;;;;12977673;19;20014;-69
2023/04/15 16:29:25;;;;;;;3.92;2.33;;;;;;;;;;12984582;19;20457;-69
2023/04/15 16:33:43;;;;;;;3.47;1.98;;;;;;;;;;12983890;19;20027;-69
2023/04/15 16:38:00;;;;;;;;;;;;;;;;;;12985606;19;20014;-69
2023/04/15 16:42:18;;;;;;;3.15;2.00;;;;;;;;;;12984836;19;20741;-69
2023/04/15 16:46:36;;;;;;;;;;;;;;;;;;12985154;19;20038;-69
2023/04/15 16:50:57;;;;;;;3.83;2.30;;;;;;;;;;12985317;19;19928;-69
2023/04/15 16:55:15;;;;;;;5.57;2.78;;;;;;;;;;12983267;19;20035;-70
2023/04/15 16:59:33;;;;;;;4.72;2.70;;;;;;;;;;12984526;19;20010;-70
2023/04/15 17:03:50;;;;;;;5.68;2.35;;;;;;;;;;12984783;19;20015;-64
2023/04/15 17:08:12;;;;;;;4.53;2.42;;;;;;;;;;12983675;19;20014;-64
2023/04/15 17:12:30;;;;;;;4.88;2.70;;;;;;;;;;12982576;19;20736;-64
2023/04/15 17:16:48;;;;;;;7.20;2.80;;;;;;;;;;12982218;19;20031;-64
2023/04/15 17:21:05;;;;;;;6.53;2.67;;;;;;;;;;12981980;19;20121;-64
2023/04/15 17:25:24;;;;;;;11.88;9.32;;;;;;;;;;12980819;19;20056;-64
2023/04/15 17:29:44;;;;;;;9.82;6.45;;;;;;;;;;12982034;19;20382;-64
2023/04/15 17:34:21;;;;;;;;;;;;;;;;;;12980999;19;20480;-64
2023/04/15 17:38:59;;;;;;;53.17;27.33;;;;;;;;;;12980078;19;19925;-64
2023/04/15 17:43:36;;;;;;;22.20;12.60;;;;;;;;;;12979115;19;20030;-65
2023/04/15 17:48:14;;;;;;;13.50;7.72;;;;;;;;;;12979825;19;20950;-65
2023/04/15 17:52:52;;;;;;;23.92;12.30;;;;;;;;;;12979723;19;20078;-65
2023/04/15 17:57:30;;;;;;;44.65;19.70;;;;;;;;;;12979380;19;20010;-65
2023/04/15 18:02:08;;;;;;;22.65;12.68;;;;;;;;;;12977992;19;20030;-66
2023/04/15 18:06:46;;;;;;;12.88;6.55;;;;;;;;;;12978151;19;20577;-66
2023/04/15 18:11:24;;;;;;;15.18;8.23;;;;;;;;;;12978226;19;20011;-66
2023/04/15 18:16:02;;;;;;;21.25;8.13;;;;;;;;;;12977629;19;20010;-66
2023/04/15 18:20:40;;;;;;;14.80;6.35;;;;;;;;;;12978445;19;20021;-65
2023/04/15 18:25:02;;;;;;;33.97;12.13;;;;;;;;;;12979868;19;20771;-65
2023/04/15 18:29:21;;;;;;;29.60;14.80;;;;;;;;;;12978868;19;20011;-65
2023/04/15 18:33:39;;;;;;;20.08;10.75;;;;;;;;;;12978716;19;20018;-65
2023/04/15 18:37:57;;;;;;;23.60;10.82;;;;;;;;;;12978749;19;20023;-65
2023/04/15 18:42:15;;;;;;;20.55;10.02;;;;;;;;;;12978165;19;20022;-65
2023/04/15 18:46:33;;;;;;;;;;;;;;;;;;12976595;19;20006;-65
2023/04/15 18:50:52;;;;;;;17.85;9.02;;;;;;;;;;12977165;19;20738;-65
2023/04/15 18:55:10;;;;;;;25.20;11.85;;;;;;;;;;12976735;19;20024;-66
2023/04/15 18:59:29;;;;;;;27.58;16.40;;;;;;;;;;12977661;19;20035;-66
2023/04/15 19:03:49;;;;;;;88.93;27.63;;;;;;;;;;12977613;19;20035;-65
2023/04/15 19:08:06;;;;;;;64.15;19.92;;;;;;;;;;12976879;19;20035;-66
2023/04/15 19:12:24;;;;;;;;;;;;;;;;;;12978330;19;20025;-66
2023/04/15 19:16:42;;;;;;;26.35;11.32;;;;;;;;;;12975723;19;19927;-66
2023/04/15 19:21:00;;;;;;;41.13;18.48;;;;;;;;;;12975986;19;20125;-66
2023/04/15 19:25:17;;;;;;;394.85;76.93;;;;;;;;;;12975684;19;20022;-66
2023/04/15 19:29:35;;;;;;;;;;;;;;;;;;12976914;19;20022;-66
2023/04/15 19:33:52;;;;;;;52.97;14.93;;;;;;;;;;12974034;19;19933;-66
2023/04/15 19:38:10;;;;;;;97.15;23.92;;;;;;;;;;12974972;19;20500;-66
2023/04/15 19:42:28;;;;;;;76.75;22.27;;;;;;;;;;12975692;19;20814;-66
2023/04/15 19:46:48;;;;;;;72.95;20.60;;;;;;;;;;12975293;19;20013;-67
2023/04/15 19:51:06;;;;;;;25.90;12.13;;;;;;;;;;12974258;19;20010;-66
2023/04/15 19:55:24;;;;;;;46.70;15.55;;;;;;;;;;12974869;19;20010;-66
2023/04/15 19:59:41;;;;;;;30.88;11.88;;;;;;;;;;12977134;19;20030;-66
2023/04/15 20:03:59;;;;;;;99.15;24.13;;;;;;;;;;12986750;19;20656;-66
2023/04/15 20:08:17;;;;;;;117.05;29.63;;;;;;;;;;12986793;19;20847;-66
2023/04/15 20:12:35;;;;;;;17.52;8.20;;;;;;;;;;12986606;19;20024;-66
2023/04/15 20:17:08;;;;;;;20.88;11.25;;;;;;;;;;12985860;19;20018;-66
2023/04/15 20:21:26;;;;;;;16.15;8.77;;;;;;;;;;12984212;19;20006;-66
2023/04/15 20:25:44;;;;;;;19.65;8.43;;;;;;;;;;12986335;19;20862;-66
2023/04/15 20:30:03;;;;;;;83.82;22.67;;;;;;;;;;12986141;19;20074;-67
2023/04/15 20:34:21;;;;;;;19.33;9.10;;;;;;;;;;12985807;19;20102;-66
2023/04/15 20:38:39;;;;;;;17.50;8.77;;;;;;;;;;12985467;19;20082;-66
2023/04/15 20:42:59;;;;;;;12.55;6.65;;;;;;;;;;12984959;19;20106;-66
2023/04/15 20:47:17;;;;;;;43.50;14.27;;;;;;;;;;12982156;19;20133;-67
2023/04/15 20:51:36;;;;;;;116.85;31.35;;;;;;;;;;12984511;19;20520;-66
2023/04/15 20:55:54;;;;;;;16.48;7.97;;;;;;;;;;12982701;19;20022;-66
2023/04/15 21:00:12;;;;;;;10.80;5.25;;;;;;;;;;12983685;19;20028;-67
2023/04/15 21:04:30;;;;;;;10.43;5.30;;;;;;;;;;12983162;19;20355;-66
2023/04/15 21:08:48;;;;;;;11.75;7.18;;;;;;;;;;12984115;19;20892;-66
2023/04/15 21:13:06;;;;;;;;;;;;;;;;;;12981177;19;20014;-66
2023/04/15 21:17:24;;;;;;;26.35;13.68;;;;;;;;;;12982449;19;20785;-66
2023/04/15 21:21:42;;;;;;;27.70;13.38;;;;;;;;;;12982887;19;20384;-66
2023/04/15 21:25:59;;;;;;;24.75;10.45;;;;;;;;;;12982754;19;20762;-66
2023/04/15 21:30:17;;;;;;;24.92;12.35;;;;;;;;;;12982478;19;20014;-66
2023/04/15 21:34:35;;;;;;;23.42;11.88;;;;;;;;;;12980547;19;20031;-66
2023/04/15 21:38:53;;;;;;;22.45;11.88;;;;;;;;;;12981919;19;20014;-66
2023/04/15 21:43:11;;;;;;;31.17;17.20;;;;;;;;;;12981333;19;20030;-66
2023/04/15 21:47:29;;;;;;;54.28;20.35;;;;;;;;;;12981534;19;20077;-66
2023/04/15 21:51:46;;;;;;;24.33;11.60;;;;;;;;;;12981807;19;20073;-66
2023/04/15 21:56:09;;;;;;;65.45;22.45;;;;;;;;;;12979948;19;20027;-66
2023/04/15 22:00:26;;;;;;;28.27;14.10;;;;;;;;;;12980551;19;20021;-66
2023/04/15 22:04:44;;;;;;;31.60;15.10;;;;;;;;;;12980892;19;20117;-66
2023/04/15 22:09:02;;;;;;;18.02;10.05;;;;;;;;;;12979895;19;20083;-68
2023/04/15 22:13:20;;;;;;;27.75;12.40;;;;;;;;;;12980599;19;20141;-66
2023/04/15 22:17:37;;;;;;;20.30;11.77;;;;;;;;;;12980668;19;20035;-66
2023/04/15 22:21:55;;;;;;;16.90;10.07;;;;;;;;;;12979121;19;20052;-66
2023/04/15 22:26:13;;;;;;;40.20;16.10;;;;;;;;;;12978678;19;20770;-66
2023/04/15 22:30:30;;;;;;;26.48;10.57;;;;;;;;;;12978958;19;20018;-66
2023/04/15 22:34:48;;;;;;;14.23;8.80;;;;;;;;;;12978209;19;20372;-66
2023/04/15 22:39:06;;;;;;;16.23;8.82;;;;;;;;;;12978034;19;20891;-66
2023/04/15 22:43:24;;;;;;;19.48;9.15;;;;;;;;;;12978360;19;20077;-66
2023/04/15 22:47:42;;;;;;;11.82;7.65;;;;;;;;;;12977958;19;20034;-66
2023/04/15 22:52:00;;;;;;;37.33;14.52;;;;;;;;;;12977961;19;20348;-66
2023/04/15 22:56:22;;;;;;;16.90;9.30;;;;;;;;;;12977744;19;20901;-66
2023/04/15 23:00:40;;;;;;;19.02;9.77;;;;;;;;;;12977890;19;20351;-66
2023/04/15 23:04:57;;;;;;;;;;;;;;;;;;12977984;19;20027;-66
2023/04/15 23:09:16;;;;;;;27.80;12.20;;;;;;;;;;12977113;19;19936;-65
2023/04/15 23:13:34;;;;;;;25.48;10.50;;;;;;;;;;12976994;19;20531;-65
2023/04/15 23:17:52;;;;;;;17.00;8.95;;;;;;;;;;12975980;19;20081;-65
2023/04/15 23:22:10;;;;;;;14.93;8.73;;;;;;;;;;12975748;19;20930;-65
2023/04/15 23:26:28;;;;;;;12.43;7.43;;;;;;;;;;12975394;19;20062;-65
2023/04/15 23:30:46;;;;;;;16.08;8.30;;;;;;;;;;12976338;19;20748;-66
2023/04/15 23:35:04;;;;;;;14.23;7.25;;;;;;;;;;12980376;19;20010;-66
2023/04/15 23:39:22;;;;;;;;;;;;;;;;;;12989577;19;20367;-65
2023/04/15 23:43:39;;;;;;;14.38;7.97;;;;;;;;;;12988418;19;19940;-65
2023/04/15 23:47:57;;;;;;;13.57;7.97;;;;;;;;;;12988836;19;20039;-65
2023/04/15 23:52:15;;;;;;;15.85;8.65;;;;;;;;;;12987792;19;20028;-65
2023/04/15 23:56:32;;;;;;;17.85;8.60;;;;;;;;;;12987945;19;20856;-64
